sensor_id;sensor_type;location;lat;lon;timestamp;pressure;altitude;pressure_sealevel;temperature;humidity
4449;BME280;2237;51.870;6.160;2023-02-04T00:01:42;103741.69;;;9.73;0.00
4449;BME280;2237;51.870;6.160;2023-02-04T00:04:08;103741.59;;;9.67;0.00
4449;BME280;2237;51.870;6.160;2023-02-04T00:06:34;103744.13;;;9.64;0.00
4449;BME280;2237;51.870;6.160;2023-02-04T00:09:01;103747.41;;;9.55;0.00
4449;BME280;2237;51.870;6.160;2023-02-04T00:11:27;103758.56;;;9.51;0.00
4449;BME280;2237;51.870;6.160;2023-02-04T00:13:53;103754.16;;;9.46;0.00
4449;BME280;2237;51.870;6.160;2023-02-04T00:16:20;103760.16;;;9.45;0.00
4449;BME280;2237;51.870;6.160;2023-02-04T00:18:46;103774.78;;;9.44;0.00
4449;BME280;2237;51.870;6.160;2023-02-04T00:21:13;103761.81;;;9.40;0.00
4449;BME280;2237;51.870;6.160;2023-02-04T00:23:39;103764.41;;;9.41;0.00
4449;BME280;2237;51.870;6.160;2023-02-04T00:26:06;103772.97;;;9.40;0.00
4449;BME280;2237;51.870;6.160;2023-02-04T00:28:33;103775.53;;;9.37;0.00
4449;BME280;2237;51.870;6.160;2023-02-04T00:30:59;103768.69;;;9.41;0.00
4449;BME280;2237;51.870;6.160;2023-02-04T00:33:26;103779.13;;;9.45;0.00
4449;BME280;2237;51.870;6.160;2023-02-04T00:35:52;103774.09;;;9.53;0.00
4449;BME280;2237;51.870;6.160;2023-02-04T00:38:18;103776.69;;;9.53;0.00
4449;BME280;2237;51.870;6.160;2023-02-04T00:40:45;103774.91;;;9.50;0.00
4449;BME280;2237;51.870;6.160;2023-02-04T00:43:11;103787.84;;;9.50;0.00
4449;BME280;2237;51.870;6.160;2023-02-04T00:45:37;103781.88;;;9.54;0.00
4449;BME280;2237;51.870;6.160;2023-02-04T00:48:04;103788.81;;;9.57;0.00
4449;BME280;2237;51.870;6.160;2023-02-04T00:50:30;103781.97;;;9.59;0.00
4449;BME280;2237;51.870;6.160;2023-02-04T00:52:57;103790.66;;;9.64;0.00
4449;BME280;2237;51.870;6.160;2023-02-04T00:55:26;103781.28;;;9.69;0.00
4449;BME280;2237;51.870;6.160;2023-02-04T00:57:53;103786.47;;;9.71;0.00
4449;BME280;2237;51.870;6.160;2023-02-04T01:00:19;103778.84;;;9.78;0.00
4449;BME280;2237;51.870;6.160;2023-02-04T01:02:45;103783.22;;;9.81;0.00
4449;BME280;2237;51.870;6.160;2023-02-04T01:05:12;103775.47;;;9.81;0.00
4449;BME280;2237;51.870;6.160;2023-02-04T01:07:38;103777.84;;;9.69;0.00
4449;BME280;2237;51.870;6.160;2023-02-04T01:10:05;103790.75;;;9.69;0.00
4449;BME280;2237;51.870;6.160;2023-02-04T01:12:32;103798.63;;;9.75;0.00
4449;BME280;2237;51.870;6.160;2023-02-04T01:14:59;103794.41;;;9.80;0.00
4449;BME280;2237;51.870;6.160;2023-02-04T01:17:25;103796.09;;;9.78;0.00
4449;BME280;2237;51.870;6.160;2023-02-04T01:19:52;103802.81;;;9.70;0.00
4449;BME280;2237;51.870;6.160;2023-02-04T01:22:18;103802.03;;;9.72;0.00
4449;BME280;2237;51.870;6.160;2023-02-04T01:24:45;103809.03;;;9.78;0.00
4449;BME280;2237;51.870;6.160;2023-02-04T01:27:11;103811.56;;;9.76;0.00
4449;BME280;2237;51.870;6.160;2023-02-04T01:29:37;103809.81;;;9.74;0.00
4449;BME280;2237;51.870;6.160;2023-02-04T01:32:04;103812.44;;;9.77;0.00
4449;BME280;2237;51.870;6.160;2023-02-04T01:34:30;103805.56;;;9.79;0.00
4449;BME280;2237;51.870;6.160;2023-02-04T01:36:56;103812.50;;;9.81;0.00
4449;BME280;2237;51.870;6.160;2023-02-04T01:39:23;103812.50;;;9.80;0.00
4449;BME280;2237;51.870;6.160;2023-02-04T01:41:49;103820.19;;;9.77;0.00
4449;BME280;2237;51.870;6.160;2023-02-04T01:44:15;103830.41;;;9.69;0.00
4449;BME280;2237;51.870;6.160;2023-02-04T01:46:42;103830.38;;;9.66;0.00
4449;BME280;2237;51.870;6.160;2023-02-04T01:49:09;103829.44;;;9.64;0.00
4449;BME280;2237;51.870;6.160;2023-02-04T01:51:36;103839.78;;;9.62;0.00
4449;BME280;2237;51.870;6.160;2023-02-04T01:54:03;103836.25;;;9.57;0.00
4449;BME280;2237;51.870;6.160;2023-02-04T01:56:29;103842.41;;;9.65;0.00
4449;BME280;2237;51.870;6.160;2023-02-04T01:58:57;103852.81;;;9.69;0.00
4449;BME280;2237;51.870;6.160;2023-02-04T02:04:03;103856.28;;;9.69;0.00
4449;BME280;2237;51.870;6.160;2023-02-04T02:06:31;103850.28;;;9.73;0.00
4449;BME280;2237;51.870;6.160;2023-02-04T02:08:58;103855.53;;;9.76;0.00
4449;BME280;2237;51.870;6.160;2023-02-04T02:11:25;103847.66;;;9.70;0.00
4449;BME280;2237;51.870;6.160;2023-02-04T02:13:52;103851.94;;;9.68;0.00
4449;BME280;2237;51.870;6.160;2023-02-04T02:16:19;103863.97;;;9.66;0.00
4449;BME280;2237;51.870;6.160;2023-02-04T02:18:46;103858.75;;;9.63;0.00
4449;BME280;2237;51.870;6.160;2023-02-04T02:21:13;103860.41;;;9.59;0.00
4449;BME280;2237;51.870;6.160;2023-02-04T02:23:53;103859.56;;;9.60;0.00
4449;BME280;2237;51.870;6.160;2023-02-04T02:26:21;103855.97;;;9.54;0.00
4449;BME280;2237;51.870;6.160;2023-02-04T02:28:49;103853.28;;;9.49;0.00
4449;BME280;2237;51.870;6.160;2023-02-04T02:31:18;103852.25;;;9.40;0.00
4449;BME280;2237;51.870;6.160;2023-02-04T02:33:45;103859.00;;;9.33;0.00
4449;BME280;2237;51.870;6.160;2023-02-04T02:36:12;103858.06;;;9.28;0.00
4449;BME280;2237;51.870;6.160;2023-02-04T02:38:40;103863.09;;;9.24;0.00
4449;BME280;2237;51.870;6.160;2023-02-04T02:41:06;103859.53;;;9.17;0.00
4449;BME280;2237;51.870;6.160;2023-02-04T02:43:36;103866.38;;;9.15;0.00
4449;BME280;2237;51.870;6.160;2023-02-04T02:46:03;103867.94;;;9.08;0.00
4449;BME280;2237;51.870;6.160;2023-02-04T02:48:29;103866.25;;;9.09;0.00
4449;BME280;2237;51.870;6.160;2023-02-04T02:50:56;103862.56;;;8.98;0.00
4449;BME280;2237;51.870;6.160;2023-02-04T02:53:22;103870.25;;;8.95;0.00
4449;BME280;2237;51.870;6.160;2023-02-04T02:55:49;103877.94;;;8.92;0.00
4449;BME280;2237;51.870;6.160;2023-02-04T02:58:25;103870.91;;;8.86;0.00
4449;BME280;2237;51.870;6.160;2023-02-04T03:00:53;103877.66;;;8.80;0.00
4449;BME280;2237;51.870;6.160;2023-02-04T03:03:23;103885.44;;;8.81;0.00
4449;BME280;2237;51.870;6.160;2023-02-04T03:05:54;103876.88;;;8.84;0.00
4449;BME280;2237;51.870;6.160;2023-02-04T03:08:22;103890.69;;;8.84;0.00
4449;BME280;2237;51.870;6.160;2023-02-04T03:10:49;103892.41;;;8.85;0.00
4449;BME280;2237;51.870;6.160;2023-02-04T03:13:16;103891.56;;;8.86;0.00
4449;BME280;2237;51.870;6.160;2023-02-04T03:15:45;103886.41;;;8.86;0.00
4449;BME280;2237;51.870;6.160;2023-02-04T03:18:15;103894.06;;;8.82;0.00
4449;BME280;2237;51.870;6.160;2023-02-04T03:20:42;103895.78;;;8.83;0.00
4449;BME280;2237;51.870;6.160;2023-02-04T03:23:09;103894.16;;;8.86;0.00
4449;BME280;2237;51.870;6.160;2023-02-04T03:25:36;103891.63;;;8.88;0.00
4449;BME280;2237;51.870;6.160;2023-02-04T03:28:02;103895.09;;;8.90;0.00
4449;BME280;2237;51.870;6.160;2023-02-04T03:30:29;103894.38;;;8.95;0.00
4449;BME280;2237;51.870;6.160;2023-02-04T03:32:56;103892.72;;;8.99;0.00
4449;BME280;2237;51.870;6.160;2023-02-04T03:35:23;103895.44;;;9.05;0.00
4449;BME280;2237;51.870;6.160;2023-02-04T03:37:49;103906.63;;;9.05;0.00
4449;BME280;2237;51.870;6.160;2023-02-04T03:40:15;103905.72;;;9.02;0.00
4449;BME280;2237;51.870;6.160;2023-02-04T03:42:42;103911.75;;;9.02;0.00
4449;BME280;2237;51.870;6.160;2023-02-04T03:45:08;103912.38;;;8.92;0.00
4449;BME280;2237;51.870;6.160;2023-02-04T03:47:35;103922.63;;;8.88;0.00
4449;BME280;2237;51.870;6.160;2023-02-04T03:50:02;103918.28;;;8.87;0.00
4449;BME280;2237;51.870;6.160;2023-02-04T03:52:29;103913.03;;;8.84;0.00
4449;BME280;2237;51.870;6.160;2023-02-04T03:54:55;103914.72;;;8.82;0.00
4449;BME280;2237;51.870;6.160;2023-02-04T03:57:21;103915.53;;;8.81;0.00
4449;BME280;2237;51.870;6.160;2023-02-04T03:59:47;103913.84;;;8.81;0.00
4449;BME280;2237;51.870;6.160;2023-02-04T04:02:14;103907.72;;;8.76;0.00
4449;BME280;2237;51.870;6.160;2023-02-04T04:04:40;103909.28;;;8.71;0.00
4449;BME280;2237;51.870;6.160;2023-02-04T04:07:07;103911.84;;;8.70;0.00
4449;BME280;2237;51.870;6.160;2023-02-04T04:09:33;103918.69;;;8.68;0.00
4449;BME280;2237;51.870;6.160;2023-02-04T04:11:59;103922.03;;;8.64;0.00
4449;BME280;2237;51.870;6.160;2023-02-04T04:14:26;103912.59;;;8.64;0.00
4449;BME280;2237;51.870;6.160;2023-02-04T04:16:52;103917.66;;;8.61;0.00
4449;BME280;2237;51.870;6.160;2023-02-04T04:19:18;103922.78;;;8.60;0.00
4449;BME280;2237;51.870;6.160;2023-02-04T04:21:45;103927.13;;;8.61;0.00
4449;BME280;2237;51.870;6.160;2023-02-04T04:24:11;103923.63;;;8.59;0.00
4449;BME280;2237;51.870;6.160;2023-02-04T04:26:37;103923.63;;;8.59;0.00
4449;BME280;2237;51.870;6.160;2023-02-04T04:29:04;103933.97;;;8.59;0.00
4449;BME280;2237;51.870;6.160;2023-02-04T04:31:30;103927.03;;;8.58;0.00
4449;BME280;2237;51.870;6.160;2023-02-04T04:33:56;103932.94;;;8.53;0.00
4449;BME280;2237;51.870;6.160;2023-02-04T04:36:23;103932.03;;;8.50;0.00
4449;BME280;2237;51.870;6.160;2023-02-04T04:38:49;103943.06;;;8.44;0.00
4449;BME280;2237;51.870;6.160;2023-02-04T04:41:15;103953.31;;;8.41;0.00
4449;BME280;2237;51.870;6.160;2023-02-04T04:43:42;103943.75;;;8.39;0.00
4449;BME280;2237;51.870;6.160;2023-02-04T04:46:08;103951.50;;;8.39;0.00
4449;BME280;2237;51.870;6.160;2023-02-04T04:48:34;103951.41;;;8.36;0.00
4449;BME280;2237;51.870;6.160;2023-02-04T04:51:00;103953.09;;;8.34;0.00
4449;BME280;2237;51.870;6.160;2023-02-04T04:53:27;103946.97;;;8.30;0.00
4449;BME280;2237;51.870;6.160;2023-02-04T04:55:53;103947.94;;;8.34;0.00
4449;BME280;2237;51.870;6.160;2023-02-04T04:58:20;103953.97;;;8.34;0.00
4449;BME280;2237;51.870;6.160;2023-02-04T05:00:46;103967.78;;;8.36;0.00
4449;BME280;2237;51.870;6.160;2023-02-04T05:03:13;103960.03;;;8.35;0.00
4449;BME280;2237;51.870;6.160;2023-02-04T05:05:39;103968.56;;;8.34;0.00
4449;BME280;2237;51.870;6.160;2023-02-04T05:08:07;103978.97;;;8.37;0.00
4449;BME280;2237;51.870;6.160;2023-02-04T05:10:39;103964.31;;;8.34;0.00
4449;BME280;2237;51.870;6.160;2023-02-04T05:13:05;103970.19;;;8.29;0.00
4449;BME280;2237;51.870;6.160;2023-02-04T05:15:32;103971.94;;;8.30;0.00
4449;BME280;2237;51.870;6.160;2023-02-04T05:17:59;103979.69;;;8.31;0.00
4449;BME280;2237;51.870;6.160;2023-02-04T05:20:25;103974.63;;;8.34;0.00
4449;BME280;2237;51.870;6.160;2023-02-04T05:22:52;103982.47;;;8.39;0.00
4449;BME280;2237;51.870;6.160;2023-02-04T05:25:18;103980.81;;;8.41;0.00
4449;BME280;2237;51.870;6.160;2023-02-04T05:27:45;103981.72;;;8.43;0.00
4449;BME280;2237;51.870;6.160;2023-02-04T05:30:11;103986.97;;;8.46;0.00
4449;BME280;2237;51.870;6.160;2023-02-04T05:32:38;103981.00;;;8.48;0.00
4449;BME280;2237;51.870;6.160;2023-02-04T05:35:05;103981.09;;;8.51;0.00
4449;BME280;2237;51.870;6.160;2023-02-04T05:37:32;103980.41;;;8.59;0.00
4449;BME280;2237;51.870;6.160;2023-02-04T05:39:58;103978.75;;;8.61;0.00
4449;BME280;2237;51.870;6.160;2023-02-04T05:42:24;103989.94;;;8.61;0.00
4449;BME280;2237;51.870;6.160;2023-02-04T05:44:50;103999.34;;;8.59;0.00
4449;BME280;2237;51.870;6.160;2023-02-04T05:47:17;103999.31;;;8.58;0.00
4449;BME280;2237;51.870;6.160;2023-02-04T05:49:45;103995.91;;;8.59;0.00
4449;BME280;2237;51.870;6.160;2023-02-04T05:52:11;103994.16;;;8.58;0.00
4449;BME280;2237;51.870;6.160;2023-02-04T05:54:38;103995.91;;;8.59;0.00
4449;BME280;2237;51.870;6.160;2023-02-04T05:57:04;103995.03;;;8.58;0.00
4449;BME280;2237;51.870;6.160;2023-02-04T05:59:30;104001.91;;;8.59;0.00
4449;BME280;2237;51.870;6.160;2023-02-04T06:01:57;104001.81;;;8.55;0.00
4449;BME280;2237;51.870;6.160;2023-02-04T06:04:23;104004.22;;;8.48;0.00
4449;BME280;2237;51.870;6.160;2023-02-04T06:06:49;104008.41;;;8.43;0.00
4449;BME280;2237;51.870;6.160;2023-02-04T06:09:16;104003.16;;;8.40;0.00
4449;BME280;2237;51.870;6.160;2023-02-04T06:11:42;104005.66;;;8.37;0.00
4449;BME280;2237;51.870;6.160;2023-02-04T06:14:08;104007.25;;;8.32;0.00
4449;BME280;2237;51.870;6.160;2023-02-04T06:16:36;104005.28;;;8.25;0.00
4449;BME280;2237;51.870;6.160;2023-02-04T06:19:02;104010.47;;;8.25;0.00
4449;BME280;2237;51.870;6.160;2023-02-04T06:21:29;104015.72;;;8.28;0.00
4449;BME280;2237;51.870;6.160;2023-02-04T06:23:55;104013.84;;;8.24;0.00
4449;BME280;2237;51.870;6.160;2023-02-04T06:26:21;104013.84;;;8.24;0.00
4449;BME280;2237;51.870;6.160;2023-02-04T06:28:48;104011.97;;;8.17;0.00
4449;BME280;2237;51.870;6.160;2023-02-04T06:31:14;104010.13;;;8.13;0.00
4449;BME280;2237;51.870;6.160;2023-02-04T06:33:41;104021.22;;;8.11;0.00
4449;BME280;2237;51.870;6.160;2023-02-04T06:36:07;104031.53;;;8.09;0.00
4449;BME280;2237;51.870;6.160;2023-02-04T06:38:33;104029.84;;;8.11;0.00
4449;BME280;2237;51.870;6.160;2023-02-04T06:41:00;104031.59;;;8.12;0.00
4449;BME280;2237;51.870;6.160;2023-02-04T06:43:26;104023.81;;;8.11;0.00
4449;BME280;2237;51.870;6.160;2023-02-04T06:45:53;104034.34;;;8.18;0.00
4449;BME280;2237;51.870;6.160;2023-02-04T06:48:20;104036.09;;;8.19;0.00
4449;BME280;2237;51.870;6.160;2023-02-04T06:50:46;104036.16;;;8.22;0.00
4449;BME280;2237;51.870;6.160;2023-02-04T06:53:12;104041.41;;;8.25;0.00
4449;BME280;2237;51.870;6.160;2023-02-04T06:55:39;104038.13;;;8.29;0.00
4449;BME280;2237;51.870;6.160;2023-02-04T06:58:05;104038.94;;;8.28;0.00
4449;BME280;2237;51.870;6.160;2023-02-04T07:00:31;104043.28;;;8.29;0.00
4449;BME280;2237;51.870;6.160;2023-02-04T07:02:59;104045.19;;;8.36;0.00
4449;BME280;2237;51.870;6.160;2023-02-04T07:05:25;104040.09;;;8.39;0.00
4449;BME280;2237;51.870;6.160;2023-02-04T07:07:51;104048.88;;;8.44;0.00
4449;BME280;2237;51.870;6.160;2023-02-04T07:10:18;104056.63;;;8.46;0.00
4449;BME280;2237;51.870;6.160;2023-02-04T07:12:46;104052.31;;;8.45;0.00
4449;BME280;2237;51.870;6.160;2023-02-04T07:15:12;104063.59;;;8.48;0.00
4449;BME280;2237;51.870;6.160;2023-02-04T07:17:39;104055.84;;;8.48;0.00
4449;BME280;2237;51.870;6.160;2023-02-04T07:20:05;104061.09;;;8.51;0.00
4449;BME280;2237;51.870;6.160;2023-02-04T07:22:32;104069.81;;;8.57;0.00
4449;BME280;2237;51.870;6.160;2023-02-04T07:24:58;104069.06;;;8.61;0.00
4449;BME280;2237;51.870;6.160;2023-02-04T07:27:24;104071.75;;;8.64;0.00
4449;BME280;2237;51.870;6.160;2023-02-04T07:29:51;104077.88;;;8.67;0.00
4449;BME280;2237;51.870;6.160;2023-02-04T07:32:17;104082.31;;;8.73;0.00
4449;BME280;2237;51.870;6.160;2023-02-04T07:34:43;104082.41;;;8.76;0.00
4449;BME280;2237;51.870;6.160;2023-02-04T07:37:10;104088.53;;;8.79;0.00
4449;BME280;2237;51.870;6.160;2023-02-04T07:39:36;104088.63;;;8.84;0.00
4449;BME280;2237;51.870;6.160;2023-02-04T07:42:02;104094.78;;;8.89;0.00
4449;BME280;2237;51.870;6.160;2023-02-04T07:44:29;104091.44;;;8.93;0.00
4449;BME280;2237;51.870;6.160;2023-02-04T07:46:55;104089.81;;;8.96;0.00
4449;BME280;2237;51.870;6.160;2023-02-04T07:49:22;104095.00;;;8.98;0.00
4449;BME280;2237;51.870;6.160;2023-02-04T07:51:49;104096.69;;;8.96;0.00
4449;BME280;2237;51.870;6.160;2023-02-04T07:54:15;104102.72;;;8.96;0.00
4449;BME280;2237;51.870;6.160;2023-02-04T07:56:41;104106.94;;;8.93;0.00
4449;BME280;2237;51.870;6.160;2023-02-04T07:59:08;104109.00;;;8.73;0.00
4449;BME280;2237;51.870;6.160;2023-02-04T08:01:34;104111.81;;;8.51;0.00
4449;BME280;2237;51.870;6.160;2023-02-04T08:04:00;104117.38;;;8.65;0.00
4449;BME280;2237;51.870;6.160;2023-02-04T08:06:27;104124.69;;;8.81;0.00
4449;BME280;2237;51.870;6.160;2023-02-04T08:08:53;104134.50;;;8.94;0.00
4449;BME280;2237;51.870;6.160;2023-02-04T08:11:19;104132.22;;;9.04;0.00
4449;BME280;2237;51.870;6.160;2023-02-04T08:13:46;104133.25;;;9.11;0.00
4449;BME280;2237;51.870;6.160;2023-02-04T08:16:12;104146.19;;;9.13;0.00
4449;BME280;2237;51.870;6.160;2023-02-04T08:18:38;104146.81;;;9.04;0.00
4449;BME280;2237;51.870;6.160;2023-02-04T08:21:05;104147.81;;;9.09;0.00
4449;BME280;2237;51.870;6.160;2023-02-04T08:23:31;104155.56;;;9.09;0.00
4449;BME280;2237;51.870;6.160;2023-02-04T08:25:58;104159.22;;;9.17;0.00
4449;BME280;2237;51.870;6.160;2023-02-04T08:28:25;104155.78;;;9.17;0.00
4449;BME280;2237;51.870;6.160;2023-02-04T08:30:51;104155.22;;;9.28;0.00
4449;BME280;2237;51.870;6.160;2023-02-04T08:33:17;104154.66;;;9.40;0.00
4449;BME280;2237;51.870;6.160;2023-02-04T08:35:44;104163.44;;;9.48;0.00
4449;BME280;2237;51.870;6.160;2023-02-04T08:38:10;104167.72;;;9.46;0.00
4449;BME280;2237;51.870;6.160;2023-02-04T08:40:36;104171.22;;;9.48;0.00
4449;BME280;2237;51.870;6.160;2023-02-04T08:43:03;104175.66;;;9.53;0.00
4449;BME280;2237;51.870;6.160;2023-02-04T08:45:29;104181.88;;;9.61;0.00
4449;BME280;2237;51.870;6.160;2023-02-04T08:47:55;104176.63;;;9.58;0.00
4449;BME280;2237;51.870;6.160;2023-02-04T08:50:22;104175.16;;;9.70;0.00
4449;BME280;2237;51.870;6.160;2023-02-04T08:52:48;104168.63;;;9.84;0.00
4449;BME280;2237;51.870;6.160;2023-02-04T08:55:14;104177.53;;;9.96;0.00
4449;BME280;2237;51.870;6.160;2023-02-04T08:57:41;104177.66;;;10.01;0.00
4449;BME280;2237;51.870;6.160;2023-02-04T09:00:09;104176.03;;;10.06;0.00
4449;BME280;2237;51.870;6.160;2023-02-04T09:02:36;104174.38;;;10.09;0.00
4449;BME280;2237;51.870;6.160;2023-02-04T09:05:02;104181.34;;;10.12;0.00
4449;BME280;2237;51.870;6.160;2023-02-04T09:07:29;104173.16;;;9.94;0.00
4449;BME280;2237;51.870;6.160;2023-02-04T09:09:55;104171.25;;;9.87;0.00
4449;BME280;2237;51.870;6.160;2023-02-04T09:12:21;104173.09;;;9.91;0.00
4449;BME280;2237;51.870;6.160;2023-02-04T09:14:48;104181.88;;;9.97;0.00
4449;BME280;2237;51.870;6.160;2023-02-04T09:17:14;104185.47;;;10.04;0.00
4449;BME280;2237;51.870;6.160;2023-02-04T09:19:40;104190.81;;;10.11;0.00
4449;BME280;2237;51.870;6.160;2023-02-04T09:22:07;104190.50;;;10.35;0.00
4449;BME280;2237;51.870;6.160;2023-02-04T09:24:33;104190.09;;;10.57;0.00
4449;BME280;2237;51.870;6.160;2023-02-04T09:26:59;104184.28;;;10.69;0.00
4449;BME280;2237;51.870;6.160;2023-02-04T09:29:26;104193.91;;;10.74;0.00
4449;BME280;2237;51.870;6.160;2023-02-04T09:31:52;104199.75;;;10.64;0.00
4449;BME280;2237;51.870;6.160;2023-02-04T09:34:18;104197.97;;;10.62;0.00
4449;BME280;2237;51.870;6.160;2023-02-04T09:36:45;104189.25;;;10.58;0.00
4449;BME280;2237;51.870;6.160;2023-02-04T09:39:11;104195.34;;;10.60;0.00
4449;BME280;2237;51.870;6.160;2023-02-04T09:41:38;104195.22;;;10.54;0.00
4449;BME280;2237;51.870;6.160;2023-02-04T09:44:11;104197.72;;;10.50;0.00
4449;BME280;2237;51.870;6.160;2023-02-04T09:46:42;104205.69;;;10.59;0.00
4449;BME280;2237;51.870;6.160;2023-02-04T09:49:09;104204.19;;;10.71;0.00
4449;BME280;2237;51.870;6.160;2023-02-04T09:51:36;104198.44;;;10.85;0.00
4449;BME280;2237;51.870;6.160;2023-02-04T09:54:11;104205.19;;;10.76;0.00
4449;BME280;2237;51.870;6.160;2023-02-04T09:56:39;104197.75;;;10.95;0.00
4449;BME280;2237;51.870;6.160;2023-02-04T09:59:22;104198.91;;;11.10;0.00
4449;BME280;2237;51.870;6.160;2023-02-04T10:02:22;104203.22;;;11.10;0.00
4449;BME280;2237;51.870;6.160;2023-02-04T10:04:55;104204.38;;;11.27;0.00
4449;BME280;2237;51.870;6.160;2023-02-04T10:07:23;104201.84;;;11.30;0.00
4449;BME280;2237;51.870;6.160;2023-02-04T10:09:52;104208.09;;;11.41;0.00
4449;BME280;2237;51.870;6.160;2023-02-04T10:12:19;104205.81;;;11.59;0.00
4449;BME280;2237;51.870;6.160;2023-02-04T10:14:46;104214.25;;;11.48;0.00
4449;BME280;2237;51.870;6.160;2023-02-04T10:17:18;104209.81;;;10.93;0.00
4449;BME280;2237;51.870;6.160;2023-02-04T10:19:45;104211.25;;;10.78;0.00
4449;BME280;2237;51.870;6.160;2023-02-04T10:22:16;104223.06;;;11.09;0.00
4449;BME280;2237;51.870;6.160;2023-02-04T10:24:43;104227.81;;;10.87;0.00
4449;BME280;2237;51.870;6.160;2023-02-04T10:27:11;104228.00;;;10.97;0.00
4449;BME280;2237;51.870;6.160;2023-02-04T10:29:38;104231.41;;;10.95;0.00
4449;BME280;2237;51.870;6.160;2023-02-04T10:32:27;104236.13;;;11.14;0.00
4449;BME280;2237;51.870;6.160;2023-02-04T10:34:59;104236.97;;;11.13;0.00
4449;BME280;2237;51.870;6.160;2023-02-04T10:37:26;104231.31;;;11.35;0.00
4449;BME280;2237;51.870;6.160;2023-02-04T10:39:52;104229.81;;;11.46;0.00
4449;BME280;2237;51.870;6.160;2023-02-04T10:42:24;104221.78;;;11.80;0.00
4449;BME280;2237;51.870;6.160;2023-02-04T10:44:51;104230.00;;;12.09;0.00
4449;BME280;2237;51.870;6.160;2023-02-04T10:47:22;104226.84;;;12.30;0.00
4449;BME280;2237;51.870;6.160;2023-02-04T10:50:16;104219.22;;;12.42;0.00
4449;BME280;2237;51.870;6.160;2023-02-04T10:52:52;104229.56;;;12.39;0.00
4449;BME280;2237;51.870;6.160;2023-02-04T10:55:22;104239.97;;;12.40;0.00
4449;BME280;2237;51.870;6.160;2023-02-04T10:57:51;104229.69;;;12.50;0.00
4449;BME280;2237;51.870;6.160;2023-02-04T11:00:20;104226.41;;;12.64;0.00
4449;BME280;2237;51.870;6.160;2023-02-04T11:02:48;104228.25;;;12.73;0.00
4449;BME280;2237;51.870;6.160;2023-02-04T11:05:19;104216.94;;;12.68;0.00
4449;BME280;2237;51.870;6.160;2023-02-04T11:07:47;104224.91;;;12.83;0.00
4449;BME280;2237;51.870;6.160;2023-02-04T11:10:22;104211.28;;;13.03;0.00
4449;BME280;2237;51.870;6.160;2023-02-04T11:15:39;104216.91;;;12.65;0.00
4449;BME280;2237;51.870;6.160;2023-02-04T11:18:09;104222.47;;;12.29;0.00
4449;BME280;2237;51.870;6.160;2023-02-04T11:20:37;104223.19;;;12.16;0.00
4449;BME280;2237;51.870;6.160;2023-02-04T11:26:17;104225.97;;;12.31;0.00
4449;BME280;2237;51.870;6.160;2023-02-04T11:31:27;104235.06;;;12.63;0.00
4449;BME280;2237;51.870;6.160;2023-02-04T11:36:50;104230.72;;;12.62;0.00
4449;BME280;2237;51.870;6.160;2023-02-04T11:39:19;104229.09;;;12.72;0.00
4449;BME280;2237;51.870;6.160;2023-02-04T11:41:46;104218.75;;;12.73;0.00
4449;BME280;2237;51.870;6.160;2023-02-04T11:44:14;104230.19;;;12.90;0.00
4449;BME280;2237;51.870;6.160;2023-02-04T11:46:41;104221.63;;;13.00;0.00
4449;BME280;2237;51.870;6.160;2023-02-04T11:49:18;104226.03;;;13.03;0.00
4449;BME280;2237;51.870;6.160;2023-02-04T11:51:45;104227.53;;;12.86;0.00
4449;BME280;2237;51.870;6.160;2023-02-04T11:54:14;104228.09;;;12.59;0.00
4449;BME280;2237;51.870;6.160;2023-02-04T11:56:43;104226.19;;;12.46;0.00
4449;BME280;2237;51.870;6.160;2023-02-04T11:59:11;104231.50;;;12.55;0.00
4449;BME280;2237;51.870;6.160;2023-02-04T12:01:38;104229.59;;;12.42;0.00
4449;BME280;2237;51.870;6.160;2023-02-04T12:04:06;104235.09;;;12.66;0.00
4449;BME280;2237;51.870;6.160;2023-02-04T12:06:35;104237.16;;;12.93;0.00
4449;BME280;2237;51.870;6.160;2023-02-04T12:11:57;104233.16;;;13.19;0.00
4449;BME280;2237;51.870;6.160;2023-02-04T12:14:34;104237.50;;;13.22;0.00
4449;BME280;2237;51.870;6.160;2023-02-04T12:17:14;104228.06;;;13.33;0.00
4449;BME280;2237;51.870;6.160;2023-02-04T12:19:41;104230.19;;;12.90;0.00
4449;BME280;2237;51.870;6.160;2023-02-04T12:22:08;104226.50;;;12.70;0.00
4449;BME280;2237;51.870;6.160;2023-02-04T12:24:34;104233.47;;;12.74;0.00
4449;BME280;2237;51.870;6.160;2023-02-04T12:27:01;104224.44;;;13.16;0.00
4449;BME280;2237;51.870;6.160;2023-02-04T12:29:27;104233.25;;;13.28;0.00
4449;BME280;2237;51.870;6.160;2023-02-04T12:31:53;104230.72;;;13.39;0.00
4449;BME280;2237;51.870;6.160;2023-02-04T12:34:20;104234.13;;;13.29;0.00
4449;BME280;2237;51.870;6.160;2023-02-04T12:36:46;104220.13;;;13.15;0.00
4449;BME280;2237;51.870;6.160;2023-02-04T12:39:13;104229.50;;;13.07;0.00
4449;BME280;2237;51.870;6.160;2023-02-04T12:41:39;104226.91;;;13.07;0.00
4449;BME280;2237;51.870;6.160;2023-02-04T12:44:06;104228.56;;;12.97;0.00
4449;BME280;2237;51.870;6.160;2023-02-04T12:46:32;104225.03;;;12.93;0.00
4449;BME280;2237;51.870;6.160;2023-02-04T12:48:58;104224.97;;;12.87;0.00
4449;BME280;2237;51.870;6.160;2023-02-04T12:51:25;104226.03;;;13.04;0.00
4449;BME280;2237;51.870;6.160;2023-02-04T12:53:51;104230.66;;;13.28;0.00
4449;BME280;2237;51.870;6.160;2023-02-04T12:56:18;104227.75;;;13.02;0.00
4449;BME280;2237;51.870;6.160;2023-02-04T12:58:45;104229.84;;;13.37;0.00
4449;BME280;2237;51.870;6.160;2023-02-04T13:01:12;104224.84;;;13.59;0.00
4449;BME280;2237;51.870;6.160;2023-02-04T13:03:38;104229.28;;;13.71;0.00
4449;BME280;2237;51.870;6.160;2023-02-04T13:06:04;104229.25;;;13.65;0.00
4449;BME280;2237;51.870;6.160;2023-02-04T13:08:31;104219.06;;;13.95;0.00
4449;BME280;2237;51.870;6.160;2023-02-04T13:10:57;104218.94;;;13.80;0.00
4449;BME280;2237;51.870;6.160;2023-02-04T13:13:24;104221.72;;;14.06;0.00
4449;BME280;2237;51.870;6.160;2023-02-04T13:15:50;104217.19;;;13.79;0.00
4449;BME280;2237;51.870;6.160;2023-02-04T13:18:16;104217.38;;;14.00;0.00
4449;BME280;2237;51.870;6.160;2023-02-04T13:20:43;104215.69;;;14.11;0.00
4449;BME280;2237;51.870;6.160;2023-02-04T13:23:11;104211.53;;;14.33;0.00
4449;BME280;2237;51.870;6.160;2023-02-04T13:25:37;104217.84;;;14.94;0.00
4449;BME280;2237;51.870;6.160;2023-02-04T13:28:03;104208.34;;;15.45;0.00
4449;BME280;2237;51.870;6.160;2023-02-04T13:30:30;104210.69;;;16.87;0.00
4449;BME280;2237;51.870;6.160;2023-02-04T13:32:56;104217.69;;;19.90;0.00
4449;BME280;2237;51.870;6.160;2023-02-04T13:35:23;104199.47;;;22.14;0.00
4449;BME280;2237;51.870;6.160;2023-02-04T13:37:50;104192.84;;;24.66;0.00
4449;BME280;2237;51.870;6.160;2023-02-04T13:40:17;104191.72;;;25.80;0.00
4449;BME280;2237;51.870;6.160;2023-02-04T13:42:43;104185.31;;;25.84;0.00
4449;BME280;2237;51.870;6.160;2023-02-04T13:45:09;104189.59;;;26.27;0.00
4449;BME280;2237;51.870;6.160;2023-02-04T13:47:37;104189.47;;;26.67;0.00